createdAt,value
2023-01-04T00:00:10.086Z,13.83
2023-01-04T00:05:13.573Z,12.50
2023-01-04T00:10:15.711Z,11.97
2023-01-04T00:15:17.982Z,12.17
2023-01-04T00:20:21.330Z,11.90
2023-01-04T00:25:23.863Z,13.33
2023-01-04T00:30:26.178Z,14.70
2023-01-04T00:35:45.145Z,17.83
2023-01-04T00:40:47.986Z,18.50
2023-01-04T00:45:51.077Z,18.57
2023-01-04T00:50:54.693Z,15.87
2023-01-04T00:56:01.800Z,13.53
2023-01-04T01:01:07.206Z,13.33
2023-01-04T01:06:11.104Z,14.33
2023-01-04T01:11:13.966Z,13.87
2023-01-04T01:16:27.329Z,12.73
2023-01-04T01:21:42.379Z,11.20
2023-01-04T01:26:44.729Z,12.53
2023-01-04T01:31:47.075Z,11.93
2023-01-04T01:36:50.941Z,11.40
2023-01-04T01:41:52.894Z,11.57
2023-01-04T01:46:56.165Z,10.33
2023-01-04T01:52:03.812Z,11.07
2023-01-04T01:57:08.741Z,13.83
2023-01-04T02:02:12.185Z,13.73
2023-01-04T02:07:20.792Z,12.30
2023-01-04T02:12:23.452Z,8.13
2023-01-04T02:17:37.934Z,10.10
2023-01-04T02:23:02.391Z,12.27
2023-01-04T02:28:09.699Z,10.77
2023-01-04T02:33:24.537Z,8.60
2023-01-04T02:38:33.820Z,8.97
2023-01-04T02:44:03.247Z,7.73
2023-01-04T02:49:23.871Z,7.73
2023-01-04T02:54:31.010Z,9.80
2023-01-04T02:59:49.765Z,7.80
2023-01-04T03:05:20.960Z,9.73
2023-01-04T03:10:33.203Z,10.57
2023-01-04T03:15:38.451Z,11.47
2023-01-04T03:20:44.464Z,10.37
2023-01-04T03:26:08.103Z,9.50
2023-01-04T03:31:31.628Z,8.10
2023-01-04T03:36:45.518Z,6.20
2023-01-04T03:42:07.741Z,5.73
2023-01-04T03:47:33.516Z,9.23
2023-01-04T03:52:38.190Z,6.23
2023-01-04T03:57:41.787Z,7.53
2023-01-04T04:02:46.322Z,8.90
2023-01-04T04:08:07.433Z,9.60
2023-01-04T04:13:09.819Z,11.47
2023-01-04T04:18:11.783Z,12.17
2023-01-04T04:23:15.649Z,11.13
2023-01-04T04:28:17.720Z,10.63
2023-01-04T04:33:20.110Z,10.03
2023-01-04T04:38:24.533Z,11.07
2023-01-04T04:43:26.724Z,13.07
2023-01-04T04:48:28.791Z,9.83
2023-01-04T04:53:32.182Z,9.17
2023-01-04T04:58:34.732Z,10.10
2023-01-04T05:03:37.270Z,10.07
2023-01-04T05:08:41.096Z,20.70
2023-01-04T05:13:43.475Z,8.37
2023-01-04T05:18:45.756Z,8.60
2023-01-04T05:23:49.917Z,8.87
2023-01-04T05:28:54.099Z,8.63
2023-01-04T05:33:56.723Z,8.73
2023-01-04T05:38:59.888Z,7.60
2023-01-04T05:44:02.093Z,6.50
2023-01-04T05:49:03.955Z,5.67
2023-01-04T05:54:07.648Z,5.60
2023-01-04T05:59:09.753Z,6.63
2023-01-04T06:04:11.726Z,7.57
2023-01-04T06:09:15.725Z,6.97
2023-01-04T06:14:18.167Z,8.10
2023-01-04T06:19:20.523Z,7.40
2023-01-04T06:24:24.539Z,8.83
2023-01-04T06:29:26.654Z,7.10
2023-01-04T06:34:31.336Z,6.70
2023-01-04T06:39:35.169Z,5.33
2023-01-04T06:44:37.019Z,5.80
2023-01-04T06:49:38.978Z,6.00
2023-01-04T06:54:42.430Z,5.80
2023-01-04T06:59:44.496Z,6.40
2023-01-04T07:04:47.026Z,6.13
2023-01-04T07:09:50.461Z,6.27
2023-01-04T07:14:52.825Z,6.57
2023-01-04T07:19:55.225Z,7.47
2023-01-04T07:24:58.753Z,6.80
2023-01-04T07:30:01.139Z,8.17
2023-01-04T07:35:03.257Z,7.87
2023-01-04T07:40:07.989Z,7.53
2023-01-04T07:45:10.920Z,7.10
2023-01-04T07:50:12.925Z,7.77
2023-01-04T07:55:16.916Z,7.87
2023-01-04T08:00:19.549Z,9.20
2023-01-04T08:05:23.124Z,8.20
2023-01-04T08:10:26.983Z,8.10
2023-01-04T08:15:29.398Z,7.83
2023-01-04T08:20:31.729Z,8.03
2023-01-04T08:25:37.252Z,7.67
2023-01-04T08:30:42.353Z,7.63
2023-01-04T08:35:44.566Z,8.30
2023-01-04T08:40:59.634Z,7.80
2023-01-04T08:46:07.712Z,7.30
2023-01-04T08:51:27.794Z,6.93
2023-01-04T08:57:06.480Z,7.60
2023-01-04T09:02:28.280Z,6.10
2023-01-04T09:07:31.166Z,6.23
2023-01-04T09:12:34.932Z,5.00
2023-01-04T09:17:46.458Z,4.47
2023-01-04T09:22:59.885Z,4.63
2023-01-04T09:28:03.675Z,4.50
2023-01-04T09:33:05.944Z,3.97
2023-01-04T09:38:08.354Z,4.40
2023-01-04T09:43:22.170Z,4.80
2023-01-04T09:48:30.528Z,4.07
2023-01-04T09:53:37.824Z,3.00
2023-01-04T09:58:43.377Z,1.20
2023-01-04T10:03:53.158Z,1.63
2023-01-04T10:08:57.800Z,1.87
2023-01-04T10:14:29.986Z,0.67
2023-01-04T10:21:12.859Z,1.70
2023-01-04T10:25:29.139Z,2.90
2023-01-04T10:30:37.381Z,4.17
2023-01-04T10:35:41.093Z,3.27
2023-01-04T10:40:43.373Z,4.57
2023-01-04T10:45:51.936Z,4.70
2023-01-04T10:50:59.842Z,4.13
2023-01-04T10:56:24.302Z,3.83
2023-01-04T11:01:38.309Z,0.60
2023-01-04T11:06:46.057Z,0.63
2023-01-04T11:11:51.158Z,1.10
2023-01-04T11:17:01.260Z,0.87
2023-01-04T11:22:09.334Z,1.67
2023-01-04T11:27:20.892Z,0.90
2023-01-04T11:32:36.921Z,1.07
2023-01-04T11:37:40.069Z,1.30
2023-01-04T11:42:42.468Z,1.00
2023-01-04T11:47:51.909Z,1.20
2023-01-04T11:52:54.030Z,1.23
2023-01-04T11:58:11.999Z,1.00
2023-01-04T12:03:17.969Z,0.90
2023-01-04T12:08:31.948Z,1.00
2023-01-04T12:13:35.852Z,0.97
2023-01-04T12:18:42.795Z,1.33
2023-01-04T12:23:45.641Z,1.20
2023-01-04T12:28:49.917Z,1.10
2023-01-04T12:33:55.487Z,0.97
2023-01-04T12:39:23.100Z,0.87
2023-01-04T12:45:02.344Z,1.17
2023-01-04T12:50:09.171Z,0.80
2023-01-04T12:55:59.522Z,2.73
2023-01-04T13:01:25.060Z,1.70
2023-01-04T13:06:32.582Z,1.50
2023-01-04T13:11:53.661Z,2.77
2023-01-04T13:17:21.487Z,2.03
2023-01-04T13:22:30.253Z,4.30
2023-01-04T13:27:33.669Z,3.60
2023-01-04T13:32:59.556Z,3.37
2023-01-04T13:38:01.521Z,3.80
2023-01-04T13:43:38.109Z,4.50
2023-01-04T13:48:42.586Z,4.40
2023-01-04T13:53:54.418Z,3.67
2023-01-04T13:58:56.654Z,2.73
2023-01-04T14:04:01.391Z,2.40
2023-01-04T14:09:08.271Z,3.67
2023-01-04T14:14:39.562Z,2.97
2023-01-04T14:19:47.930Z,7.03
2023-01-04T14:25:09.866Z,4.10
2023-01-04T14:30:25.413Z,2.60
2023-01-04T14:35:29.132Z,2.53
2023-01-04T14:40:33.280Z,1.90
2023-01-04T14:45:35.573Z,2.70
2023-01-04T14:50:37.597Z,3.07
2023-01-04T14:55:41.545Z,3.77
2023-01-04T15:00:43.670Z,3.53
2023-01-04T15:05:47.662Z,4.50
2023-01-04T15:10:54.725Z,4.77
2023-01-04T15:16:00.296Z,4.90
2023-01-04T15:21:04.015Z,4.47
2023-01-04T15:26:09.903Z,5.23
2023-01-04T15:31:13.888Z,5.20
2023-01-04T15:36:23.803Z,6.03
2023-01-04T15:41:45.080Z,6.33
2023-01-04T15:46:46.990Z,5.80
2023-01-04T15:51:49.504Z,5.93
2023-01-04T15:56:53.022Z,5.60
2023-01-04T16:01:55.923Z,6.53
2023-01-04T16:06:58.260Z,6.57
2023-01-04T16:12:19.118Z,6.30
2023-01-04T16:17:21.117Z,9.67
2023-01-04T16:22:23.437Z,6.70
2023-01-04T16:27:33.092Z,6.33
2023-01-04T16:32:37.780Z,6.77
2023-01-04T16:37:40.243Z,8.30
2023-01-04T16:42:50.781Z,7.10
2023-01-04T16:47:53.935Z,7.13
2023-01-04T16:52:56.283Z,7.33
2023-01-04T16:58:00.488Z,8.90
2023-01-04T17:03:02.887Z,5.90
2023-01-04T17:08:05.183Z,3.80
2023-01-04T17:13:09.013Z,1.23
2023-01-04T17:18:13.150Z,1.47
2023-01-04T17:23:15.772Z,1.73
2023-01-04T17:28:24.874Z,1.93
2023-01-04T17:33:27.746Z,1.60
2023-01-04T17:38:29.885Z,1.50
2023-01-04T17:43:33.547Z,2.70
2023-01-04T17:48:37.089Z,1.70
2023-01-04T17:53:40.851Z,1.20
2023-01-04T17:58:45.207Z,1.30
2023-01-04T18:03:50.402Z,1.40
2023-01-04T18:08:52.605Z,1.20
2023-01-04T18:13:59.042Z,1.37
2023-01-04T18:19:03.048Z,1.50
2023-01-04T18:29:32.361Z,1.77
2023-01-04T18:34:35.957Z,1.30
2023-01-04T18:39:39.535Z,1.70
2023-01-04T18:44:49.108Z,1.63
2023-01-04T18:49:53.768Z,1.63
2023-01-04T18:54:56.680Z,1.90
2023-01-04T19:00:02.671Z,1.80
2023-01-04T19:05:08.176Z,2.30
2023-01-04T19:10:11.764Z,1.90
2023-01-04T19:15:18.977Z,1.90
2023-01-04T19:20:22.679Z,1.70
2023-01-04T19:25:28.432Z,1.87
2023-01-04T19:30:34.128Z,2.20
2023-01-04T19:35:37.287Z,2.00
2023-01-04T19:40:41.933Z,1.90
2023-01-04T19:45:46.277Z,1.90
2023-01-04T19:50:50.259Z,1.80
2023-01-04T19:55:57.845Z,1.80
2023-01-04T20:01:02.926Z,1.57
2023-01-04T20:06:08.440Z,1.30
2023-01-04T20:11:11.832Z,1.67
2023-01-04T20:16:16.273Z,1.63
2023-01-04T20:21:19.525Z,1.70
2023-01-04T20:26:24.936Z,1.50
2023-01-04T20:31:32.789Z,1.60
2023-01-04T20:36:36.217Z,1.40
2023-01-04T20:42:00.548Z,1.30
2023-01-04T20:47:07.542Z,1.30
2023-01-04T20:52:11.379Z,1.67
2023-01-04T20:57:16.083Z,1.50
2023-01-04T21:02:21.105Z,1.70
2023-01-04T21:07:24.571Z,1.43
2023-01-04T21:12:27.141Z,1.47
2023-01-04T21:17:32.922Z,1.40
2023-01-04T21:22:36.635Z,1.40
2023-01-04T21:27:39.430Z,1.60
2023-01-04T21:32:43.039Z,1.43
2023-01-04T21:37:45.780Z,1.40
2023-01-04T21:42:49.815Z,1.30
2023-01-04T21:47:55.961Z,1.00
2023-01-04T21:52:58.986Z,1.20
2023-01-04T21:58:01.239Z,1.13
2023-01-04T22:03:04.608Z,0.80
2023-01-04T22:08:07.125Z,1.00
2023-01-04T22:13:09.876Z,1.10
2023-01-04T22:18:14.274Z,1.00
2023-01-04T22:23:16.453Z,0.70
2023-01-04T22:28:18.752Z,1.10
2023-01-04T22:33:23.028Z,0.90
2023-01-04T22:38:25.221Z,0.60
2023-01-04T22:43:27.793Z,0.70
2023-01-04T22:48:31.761Z,0.50
2023-01-04T22:53:33.781Z,0.87
2023-01-04T22:58:36.940Z,0.63
2023-01-04T23:03:43.443Z,1.03
2023-01-04T23:08:45.853Z,0.80
2023-01-04T23:13:48.289Z,0.80
2023-01-04T23:18:51.747Z,0.90
2023-01-04T23:23:53.923Z,1.20
2023-01-04T23:28:56.812Z,1.00
2023-01-04T23:34:02.410Z,1.00
2023-01-04T23:39:07.033Z,0.83
2023-01-04T23:44:10.117Z,0.70
2023-01-04T23:49:14.332Z,0.80
2023-01-04T23:54:16.617Z,0.53
2023-01-04T23:59:19.080Z,0.60
